Time;durP1;ratioP1;P1;durP2;ratioP2;P2;SDS_P1;SDS_P2;PMS_P1;PMS_P2;Temp;Humidity;BMP_temperature;BMP_pressure;BME280_temperature;BME280_humidity;BME280_pressure;Samples;Min_cycle;Max_cycle;Signal;HPM_P1;HPM_P2
2021/08/18 00:02:04;;;;;;;25.73;10.05;;;;;;;13.54;94.03;98975.88;4986271;28;20030;-68
2021/08/18 00:04:29;;;;;;;22.80;9.57;;;;;;;13.67;94.04;98975.78;4969753;28;20121;-69
2021/08/18 00:06:54;;;;;;;23.55;10.02;;;;;;;13.63;94.17;98974.56;4991919;28;20065;-69
2021/08/18 00:09:20;;;;;;;27.40;10.32;;;;;;;13.52;94.27;98948.09;4990784;28;20030;-69
2021/08/18 00:11:45;;;;;;;24.02;9.73;;;;;;;13.51;94.45;98963.53;4991655;28;20033;-68
2021/08/18 00:14:12;;;;;;;27.02;10.77;;;;;;;13.64;94.27;98961.81;4970589;28;20031;-69
2021/08/18 00:16:37;;;;;;;22.52;10.02;;;;;;;13.61;94.67;98963.06;4986977;28;20041;-69
2021/08/18 00:19:02;;;;;;;22.88;9.93;;;;;;;13.60;94.68;98969.56;4973340;28;20396;-69
2021/08/18 00:21:28;;;;;;;26.80;10.43;;;;;;;13.55;94.62;98956.63;4975315;28;20105;-70
2021/08/18 00:23:53;;;;;;;25.73;10.93;;;;;;;13.54;94.42;98946.78;4989680;28;20033;-68
2021/08/18 00:26:25;;;;;;;23.52;10.93;;;;;;;13.71;93.82;98968.88;4991921;28;20045;-69
2021/08/18 00:28:51;;;;;;;27.27;10.48;;;;;;;13.58;94.26;98941.78;4991974;28;20042;-68
2021/08/18 00:31:16;;;;;;;21.05;10.18;;;;;;;13.56;95.23;98941.16;4991866;28;20396;-70
2021/08/18 00:33:41;;;;;;;20.13;9.23;;;;;;;13.62;95.02;98955.75;4989864;28;20105;-69
2021/08/18 00:36:07;;;;;;;21.67;9.93;;;;;;;13.55;95.22;98951.19;4972212;28;20030;-70
2021/08/18 00:38:32;;;;;;;21.65;10.00;;;;;;;13.56;94.97;98939.25;4991702;28;20026;-69
2021/08/18 00:40:58;;;;;;;23.90;10.18;;;;;;;13.65;95.26;98963.47;4992116;28;20539;-69
2021/08/18 00:43:23;;;;;;;23.50;10.15;;;;;;;13.57;94.44;98942.81;4991822;28;20033;-69
2021/08/18 00:45:49;;;;;;;25.38;10.23;;;;;;;13.51;94.80;98939.09;4972502;28;20034;-69
2021/08/18 00:48:15;;;;;;;26.55;10.27;;;;;;;13.82;94.46;98965.44;4958583;28;20030;-69
2021/08/18 00:50:40;;;;;;;25.20;11.38;;;;;;;13.81;93.92;98957.50;4974360;28;20025;-68
2021/08/18 00:53:05;;;;;;;24.75;10.98;;;;;;;13.70;94.53;98945.47;4994719;28;20107;-69
2021/08/18 00:55:30;;;;;;;27.65;10.20;;;;;;;13.80;94.09;98953.09;4995978;28;20056;-69
2021/08/18 00:57:57;;;;;;;26.02;10.15;;;;;;;13.75;94.38;98950.22;4987147;28;20069;-69
2021/08/18 01:00:23;;;;;;;26.30;10.52;;;;;;;13.64;95.94;98953.66;4973374;28;20030;-70
2021/08/18 01:02:49;;;;;;;28.20;10.90;;;;;;;13.65;96.32;98958.03;4981329;28;20459;-69
2021/08/18 01:05:21;;;;;;;23.98;11.32;;;;;;;13.65;96.87;98960.75;4990284;28;20034;-69
2021/08/18 01:07:48;;;;;;;27.23;11.70;;;;;;;13.53;98.47;98945.13;4991436;28;20101;-69
2021/08/18 01:10:15;;;;;;;37.97;11.88;;;;;;;13.51;99.49;98951.84;4973572;28;20026;-70
2021/08/18 01:12:41;;;;;;;31.05;11.60;;;;;;;13.41;100.00;98956.91;4990568;28;20435;-70
2021/08/18 01:15:10;;;;;;;27.40;12.68;;;;;;;13.38;100.00;98945.44;4991857;28;20026;-70
2021/08/18 01:17:50;;;;;;;27.58;12.32;;;;;;;13.48;100.00;98952.28;4994577;28;20049;-70
2021/08/18 01:20:18;;;;;;;24.42;11.02;;;;;;;13.48;100.00;98944.13;4976467;28;20504;-69
2021/08/18 01:22:44;;;;;;;23.00;10.93;;;;;;;13.52;99.70;98942.66;4990205;28;20034;-69
2021/08/18 01:25:11;;;;;;;27.02;11.55;;;;;;;13.49;100.00;98946.66;4994777;28;20113;-69
2021/08/18 01:27:43;;;;;;;31.30;11.98;;;;;;;13.50;100.00;98953.75;4977793;28;20026;-69
2021/08/18 01:30:10;;;;;;;23.48;11.23;;;;;;;13.62;99.42;98953.03;4994282;28;20026;-69
2021/08/18 01:32:43;;;;;;;28.38;11.75;;;;;;;13.51;98.56;98949.13;4988710;28;20555;-70
2021/08/18 01:35:16;;;;;;;33.13;12.18;;;;;;;13.48;98.95;98935.97;4982372;28;20026;-70
2021/08/18 01:37:41;;;;;;;27.17;11.43;;;;;;;13.51;98.50;98932.81;4969342;28;20029;-69
2021/08/18 01:40:07;;;;;;;28.85;11.77;;;;;;;13.55;98.39;98953.09;4989523;28;20098;-69
2021/08/18 01:42:33;;;;;;;24.55;11.23;;;;;;;13.57;98.77;98950.97;4994436;28;20057;-69
2021/08/18 01:44:58;;;;;;;28.98;11.00;;;;;;;13.58;97.57;98955.38;4994737;28;20030;-69
2021/08/18 01:47:23;;;;;;;29.75;11.27;;;;;;;13.56;98.03;98941.97;4994837;28;20072;-69
2021/08/18 01:49:48;;;;;;;26.40;11.85;;;;;;;13.67;97.55;98945.88;4984644;28;20034;-69
2021/08/18 01:52:17;;;;;;;24.67;11.02;;;;;;;13.64;96.85;98957.19;4991220;28;20129;-69
2021/08/18 01:54:42;;;;;;;26.97;10.80;;;;;;;13.71;96.25;98949.00;4994122;28;20022;-70
2021/08/18 01:57:07;;;;;;;30.25;10.80;;;;;;;13.58;96.32;98926.28;4994642;28;20025;-69
2021/08/18 01:59:33;;;;;;;24.70;11.27;;;;;;;13.70;96.21;98950.91;4994391;28;20030;-69
2021/08/18 02:01:58;;;;;;;26.15;11.27;;;;;;;13.56;96.49;98919.41;4990887;28;20396;-69
2021/08/18 02:04:23;;;;;;;28.88;12.00;;;;;;;13.63;96.14;98938.41;4993310;28;20026;-69
2021/08/18 02:06:49;;;;;;;26.90;12.18;;;;;;;13.60;96.12;98936.97;4994315;28;20488;-69
2021/08/18 02:09:14;;;;;;;26.83;11.82;;;;;;;13.68;96.09;98949.44;4994590;28;20041;-69
2021/08/18 02:11:39;;;;;;;30.20;12.30;;;;;;;13.64;95.55;98935.44;4987096;28;20053;-69
2021/08/18 02:14:04;;;;;;;23.45;10.57;;;;;;;13.71;95.72;98949.00;4975479;28;20038;-69
2021/08/18 02:16:30;;;;;;;23.08;11.02;;;;;;;13.78;95.35;98956.06;4985367;28;20049;-69
2021/08/18 02:18:55;;;;;;;29.92;11.77;;;;;;;13.78;95.37;98945.19;4976513;28;20026;-69
2021/08/18 02:21:20;;;;;;;28.98;11.07;;;;;;;13.67;95.40;98932.28;4988825;28;20027;-69
2021/08/18 02:23:45;;;;;;;30.20;10.77;;;;;;;13.58;94.91;98906.44;4981867;28;20027;-69
2021/08/18 02:26:11;;;;;;;31.00;11.45;;;;;;;13.82;94.26;98937.41;4994159;28;20018;-69
2021/08/18 02:28:36;;;;;;;21.73;10.18;;;;;;;13.81;93.74;98935.75;4993251;28;20358;-69
2021/08/18 02:31:01;;;;;;;30.05;12.43;;;;;;;13.59;94.38;98905.38;4992767;28;20037;-69
2021/08/18 02:33:27;;;;;;;23.55;10.70;;;;;;;13.80;94.44;98939.50;4985780;28;20030;-69
2021/08/18 02:35:52;;;;;;;24.58;11.07;;;;;;;13.75;94.62;98937.47;4975260;28;20041;-68
2021/08/18 02:38:17;;;;;;;27.98;11.45;;;;;;;13.78;94.95;98945.19;4992842;28;20030;-69
2021/08/18 02:40:43;;;;;;;28.50;11.13;;;;;;;13.74;94.56;98933.06;4991370;28;20034;-69
2021/08/18 02:43:08;;;;;;;26.27;10.85;;;;;;;13.80;94.31;98939.50;4993540;28;20111;-69
2021/08/18 02:45:34;;;;;;;24.95;10.35;;;;;;;13.71;94.86;98933.53;4993640;28;20034;-69
2021/08/18 02:48:00;;;;;;;23.70;11.32;;;;;;;13.78;94.91;98942.47;4993598;28;20030;-69
2021/08/18 02:50:28;;;;;;;23.40;10.48;;;;;;;13.76;95.07;98941.03;4988974;28;20023;-69
2021/08/18 02:52:53;;;;;;;22.77;10.27;;;;;;;13.72;94.61;98932.47;4975511;28;20026;-69
2021/08/18 02:55:18;;;;;;;22.00;9.80;;;;;;;13.66;94.69;98930.63;4993601;28;20034;-69
2021/08/18 02:57:44;;;;;;;22.20;10.15;;;;;;;13.74;95.00;98935.78;4978394;28;20029;-70
2021/08/18 03:00:10;;;;;;;20.92;10.07;;;;;;;13.78;94.83;98933.47;4987537;28;20081;-70
2021/08/18 03:02:36;;;;;;;21.17;9.50;;;;;;;13.66;94.82;98927.91;4992487;28;20033;-69
2021/08/18 03:05:02;;;;;;;22.75;9.55;;;;;;;13.67;94.55;98926.84;4993518;28;20101;-69
2021/08/18 03:07:28;;;;;;;22.58;9.98;;;;;;;13.77;95.22;98940.78;4993537;28;20026;-69
2021/08/18 03:09:53;;;;;;;20.20;8.98;;;;;;;13.84;95.08;98948.09;4992867;28;20072;-69
2021/08/18 03:12:18;;;;;;;23.40;9.73;;;;;;;13.76;94.64;98935.59;4993321;28;20089;-70
2021/08/18 03:14:44;;;;;;;20.50;8.95;;;;;;;13.79;94.78;98952.28;4991201;28;20105;-70
2021/08/18 03:17:09;;;;;;;22.60;10.07;;;;;;;13.76;95.41;98943.75;5017453;23;20042;-74
2021/08/18 03:19:34;;;;;;;22.67;9.80;;;;;;;13.78;95.16;98947.06;5013421;28;20052;-73
2021/08/18 03:22:00;;;;;;;22.40;9.07;;;;;;;13.78;95.40;98950.63;5012416;28;20022;-74
2021/08/18 03:24:25;;;;;;;21.23;9.10;;;;;;;13.71;95.71;98943.56;5012750;28;20028;-73
2021/08/18 03:26:51;;;;;;;23.45;8.73;;;;;;;13.71;95.65;98952.56;5020342;28;20501;-73
2021/08/18 03:29:16;;;;;;;19.63;9.00;;;;;;;13.72;95.36;98951.50;5048976;28;20410;-73
2021/08/18 03:31:41;;;;;;;20.52;8.32;;;;;;;13.69;95.40;98937.50;5039783;28;20070;-73
2021/08/18 03:34:07;;;;;;;15.85;8.20;;;;;;;13.75;95.63;98950.22;5031587;28;20379;-73
2021/08/18 03:36:32;;;;;;;21.33;8.60;;;;;;;13.80;95.38;98953.94;5033127;28;20053;-73
2021/08/18 03:38:57;;;;;;;15.60;7.32;;;;;;;13.66;95.88;98929.81;5031235;28;20033;-73
2021/08/18 03:41:23;;;;;;;17.23;7.70;;;;;;;13.71;95.98;98940.84;5046449;28;20040;-73
2021/08/18 03:43:49;;;;;;;13.70;7.38;;;;;;;13.77;95.53;98954.38;5052058;28;20029;-74
2021/08/18 03:46:14;;;;;;;21.50;8.80;;;;;;;13.73;96.04;98949.63;5056742;28;20036;-73
2021/08/18 03:48:40;;;;;;;16.23;8.13;;;;;;;13.68;96.09;98947.56;5063244;28;20127;-73
2021/08/18 03:51:05;;;;;;;16.50;7.70;;;;;;;13.74;96.00;98948.56;5039130;28;20463;-73
2021/08/18 03:53:30;;;;;;;18.67;8.02;;;;;;;13.74;95.64;98935.78;5031982;28;20029;-73
2021/08/18 03:55:55;;;;;;;16.27;7.97;;;;;;;13.73;96.15;98946.91;5032314;28;20029;-73
2021/08/18 03:58:21;;;;;;;12.80;7.78;;;;;;;13.75;96.13;98947.50;5038081;28;20470;-73
2021/08/18 04:00:46;;;;;;;16.92;8.13;;;;;;;13.71;96.35;98933.53;5040163;28;20052;-73
2021/08/18 04:03:11;;;;;;;16.65;8.20;;;;;;;13.85;95.99;98947.00;5043800;28;20013;-73
2021/08/18 04:05:37;;;;;;;23.00;9.35;;;;;;;13.80;96.26;98948.50;5032331;28;20109;-73
2021/08/18 04:08:06;;;;;;;17.63;8.52;;;;;;;13.74;96.74;98943.13;5033052;28;20035;-74
2021/08/18 04:10:32;;;;;;;19.45;8.65;;;;;;;13.67;96.26;98948.59;5032627;28;20036;-73
2021/08/18 04:12:59;;;;;;;23.08;9.35;;;;;;;13.72;96.93;98956.94;5032366;28;20120;-72
2021/08/18 04:15:29;;;;;;;14.93;8.68;;;;;;;13.74;96.75;98959.44;5034607;28;20083;-73
2021/08/18 04:17:55;;;;;;;16.70;8.73;;;;;;;13.74;96.84;98960.25;5044996;28;20040;-73
2021/08/18 04:20:22;;;;;;;23.30;8.77;;;;;;;13.63;97.53;98944.66;5042829;28;20064;-73
2021/08/18 04:22:48;;;;;;;21.48;8.35;;;;;;;13.55;97.63;98944.94;5032874;28;20032;-74
2021/08/18 04:25:16;;;;;;;18.77;8.50;;;;;;;13.66;98.50;98962.44;5036214;28;20035;-73
2021/08/18 04:27:41;;;;;;;20.83;8.63;;;;;;;13.62;98.25;98956.56;5046248;28;20063;-72
2021/08/18 04:30:09;;;;;;;21.58;9.00;;;;;;;13.69;97.92;98962.81;5047309;28;20474;-73
2021/08/18 04:32:35;;;;;;;19.42;8.98;;;;;;;13.59;98.20;98962.44;5049978;28;20036;-73
2021/08/18 04:35:00;;;;;;;17.65;8.38;;;;;;;13.59;98.60;98954.31;5052357;28;20017;-73
2021/08/18 04:37:25;;;;;;;22.25;9.55;;;;;;;13.58;98.58;98966.25;5034320;28;20481;-73
2021/08/18 04:39:51;;;;;;;21.58;8.85;;;;;;;13.60;98.98;98958.72;5033851;28;20490;-73
2021/08/18 04:42:16;;;;;;;19.38;8.70;;;;;;;13.65;98.70;98972.47;5044167;28;20017;-73
2021/08/18 04:44:41;;;;;;;19.25;8.98;;;;;;;13.67;98.42;98956.75;5032573;28;20104;-75
2021/08/18 04:47:07;;;;;;;18.75;8.60;;;;;;;13.60;98.56;98953.25;5042862;28;20032;-73
2021/08/18 04:49:32;;;;;;;19.65;8.48;;;;;;;13.66;98.37;98951.56;5040215;28;20017;-77
2021/08/18 04:51:57;;;;;;;16.60;8.77;;;;;;;13.61;98.70;98960.34;5037416;28;20040;-75
2021/08/18 04:54:23;;;;;;;20.25;8.50;;;;;;;13.68;99.05;98977.47;5050564;28;20056;-71
2021/08/18 04:56:48;;;;;;;17.02;7.97;;;;;;;13.67;98.80;98970.34;5056157;28;20466;-71
2021/08/18 04:59:13;;;;;;;15.13;8.05;;;;;;;13.77;98.25;98976.13;5037434;28;20025;-72
2021/08/18 05:01:38;;;;;;;16.45;7.82;;;;;;;13.80;98.25;98981.13;5037748;28;20029;-71
2021/08/18 05:04:06;;;;;;;16.77;7.28;;;;;;;13.84;97.68;98975.28;5040211;28;20025;-71
2021/08/18 05:06:32;;;;;;;18.10;7.45;;;;;;;13.80;98.05;98981.13;5037125;28;20124;-70
2021/08/18 05:08:57;;;;;;;16.35;8.35;;;;;;;13.68;98.34;98968.47;5036400;28;20510;-69
2021/08/18 05:11:22;;;;;;;14.05;7.22;;;;;;;13.75;98.44;98978.25;5043850;28;20382;-70
2021/08/18 05:13:47;;;;;;;13.45;6.50;;;;;;;13.75;98.38;98971.97;5053516;28;20029;-70
2021/08/18 05:16:13;;;;;;;11.02;6.38;;;;;;;13.75;98.27;98977.41;5047605;28;20505;-70
2021/08/18 05:18:38;;;;;;;12.30;6.13;;;;;;;13.75;98.24;98975.56;5055011;28;20029;-74
2021/08/18 05:21:03;;;;;;;13.93;6.50;;;;;;;13.68;98.67;98969.31;5045740;28;20366;-73
2021/08/18 05:23:28;;;;;;;14.68;6.38;;;;;;;13.68;99.11;98976.63;5035975;28;20029;-75
2021/08/18 05:25:54;;;;;;;13.18;5.68;;;;;;;13.69;99.67;98967.41;5036173;28;20032;-74
2021/08/18 05:28:19;;;;;;;11.45;5.72;;;;;;;13.84;99.66;98981.53;5037296;28;20104;-70
2021/08/18 05:30:44;;;;;;;11.48;5.55;;;;;;;13.81;98.73;98984.72;5044554;28;20025;-70
2021/08/18 05:33:10;;;;;;;10.40;5.57;;;;;;;13.69;99.60;98964.69;5035187;28;20061;-70
2021/08/18 05:35:35;;;;;;;10.43;5.57;;;;;;;13.73;99.76;98974.94;5037047;28;20467;-70
2021/08/18 05:38:00;;;;;;;12.45;5.80;;;;;;;13.79;99.67;98981.38;5035256;28;20498;-70
2021/08/18 05:40:25;;;;;;;13.15;5.47;;;;;;;13.72;100.00;98989.56;5040171;28;20079;-70
2021/08/18 05:42:51;;;;;;;13.82;5.50;;;;;;;13.86;99.83;98984.03;5037775;28;20068;-69
2021/08/18 05:45:16;;;;;;;9.35;4.97;;;;;;;13.86;99.32;98989.47;5035354;28;20076;-69
2021/08/18 05:47:42;;;;;;;12.25;5.28;;;;;;;13.89;99.25;98981.72;5048247;28;20521;-69
2021/08/18 05:50:07;;;;;;;12.23;5.55;;;;;;;13.89;99.06;98986.31;5039708;28;20020;-69
2021/08/18 05:52:33;;;;;;;8.93;5.22;;;;;;;13.89;98.97;98987.16;5036961;28;20024;-69
2021/08/18 05:55:02;;;;;;;11.10;4.63;;;;;;;14.01;98.49;98987.25;5055262;28;20029;-69
2021/08/18 05:57:27;;;;;;;;;;;;;;;14.05;97.96;98991.22;5048245;28;20052;-69
2021/08/18 05:59:53;;;;;;;9.15;4.55;;;;;;;14.13;97.86;98982.78;5043108;28;20008;-69
2021/08/18 06:02:18;;;;;;;11.77;4.75;;;;;;;14.11;97.37;98990.31;5036257;28;20033;-70
2021/08/18 06:04:43;;;;;;;11.40;4.93;;;;;;;14.31;96.95;98990.16;5040678;28;20487;-69
2021/08/18 06:07:08;;;;;;;9.38;5.38;;;;;;;14.42;95.52;98980.44;5038021;28;20512;-69
2021/08/18 06:09:34;;;;;;;11.93;4.80;;;;;;;14.40;95.35;98983.38;5057108;28;20089;-69
2021/08/18 06:11:59;;;;;;;11.20;4.90;;;;;;;14.44;94.42;98987.31;5036337;28;20056;-69
2021/08/18 06:14:24;;;;;;;10.65;5.20;;;;;;;14.40;94.98;98988.00;5041988;28;20036;-69
2021/08/18 06:16:50;;;;;;;9.00;4.60;;;;;;;14.29;96.14;98994.16;5035235;28;20120;-69
2021/08/18 06:19:16;;;;;;;8.23;4.57;;;;;;;14.40;95.95;98993.44;5036896;28;20056;-69
2021/08/18 06:21:41;;;;;;;10.73;4.88;;;;;;;14.32;95.99;98985.56;5039865;28;20521;-69
2021/08/18 06:24:15;;;;;;;11.65;5.00;;;;;;;14.41;95.54;98987.78;5037313;28;20037;-69
2021/08/18 06:26:41;;;;;;;10.25;4.93;;;;;;;14.40;95.32;98991.53;5035178;28;20030;-69
2021/08/18 06:29:06;;;;;;;8.73;5.15;;;;;;;14.37;95.18;98983.00;5042603;28;20554;-75
2021/08/18 06:31:31;;;;;;;8.43;4.40;;;;;;;14.47;94.48;98975.16;5036004;28;20041;-72
2021/08/18 06:33:57;;;;;;;8.60;4.55;;;;;;;14.42;94.74;98986.72;5033710;28;20430;-76
2021/08/18 06:36:22;;;;;;;15.95;5.07;;;;;;;14.46;94.68;98987.94;5035913;28;20036;-74
2021/08/18 06:38:47;;;;;;;9.48;4.60;;;;;;;14.38;94.70;98993.66;5040784;28;20087;-73
2021/08/18 06:41:12;;;;;;;13.63;4.72;;;;;;;14.40;94.48;98991.53;5041722;28;20200;-74
2021/08/18 06:43:38;;;;;;;12.10;5.45;;;;;;;14.41;94.80;98986.94;5035559;28;20060;-70
2021/08/18 06:46:04;;;;;;;8.98;4.45;;;;;;;14.61;94.61;99001.22;5037537;28;20055;-70
2021/08/18 06:48:29;;;;;;;7.65;4.15;;;;;;;14.65;94.83;98998.88;5036415;28;20080;-70
2021/08/18 06:50:55;;;;;;;11.23;4.60;;;;;;;14.48;95.64;99004.03;5033981;28;20029;-70
2021/08/18 06:53:20;;;;;;;8.80;4.50;;;;;;;14.47;96.37;99000.47;5034836;28;20036;-70
2021/08/18 06:55:45;;;;;;;7.85;4.38;;;;;;;14.59;96.33;98984.28;5034216;28;20074;-70
2021/08/18 06:58:11;;;;;;;6.45;4.00;;;;;;;14.62;95.65;99000.16;5034729;28;20574;-70
2021/08/18 07:00:36;;;;;;;9.50;3.88;;;;;;;14.76;94.73;99000.84;5037087;28;20021;-71
2021/08/18 07:03:01;;;;;;;6.35;3.47;;;;;;;14.82;94.23;98996.41;5034662;28;20029;-70
2021/08/18 07:05:32;;;;;;;6.80;3.83;;;;;;;14.93;93.75;99003.81;5033541;28;20100;-70
2021/08/18 07:07:57;;;;;;;8.82;3.58;;;;;;;14.98;94.23;99001.22;5039358;28;20029;-72
2021/08/18 07:10:23;;;;;;;8.95;3.83;;;;;;;14.90;94.59;99001.53;5033740;28;20025;-72
2021/08/18 07:12:48;;;;;;;5.38;3.03;;;;;;;14.93;93.22;98998.34;5033920;28;20052;-74
2021/08/18 07:15:13;;;;;;;7.60;3.30;;;;;;;14.93;93.87;99001.09;5032987;28;20025;-71
2021/08/18 07:17:39;;;;;;;9.98;3.30;;;;;;;15.08;93.95;99001.53;5046285;28;20509;-74
2021/08/18 07:20:05;;;;;;;6.93;3.88;;;;;;;15.15;93.58;99001.47;5033827;28;20505;-76
2021/08/18 07:22:31;;;;;;;9.07;4.07;;;;;;;15.14;94.26;98986.16;5031763;28;20029;-74
2021/08/18 07:24:56;;;;;;;9.23;3.75;;;;;;;15.07;94.53;98994.44;5045053;28;20036;-68
2021/08/18 07:27:21;;;;;;;6.97;3.90;;;;;;;15.16;94.43;99002.31;5045034;28;20396;-70
2021/08/18 07:29:46;;;;;;;7.47;3.85;;;;;;;15.27;92.94;98996.06;5031742;28;20021;-76
2021/08/18 07:32:12;;;;;;;9.55;3.75;;;;;;;15.16;93.88;98991.41;5036994;28;20048;-74
2021/08/18 07:34:37;;;;;;;10.32;3.40;;;;;;;15.18;92.75;98981.09;5043656;28;20027;-77
2021/08/18 07:37:03;;;;;;;8.95;3.17;;;;;;;15.25;92.67;98992.78;5040204;28;20030;-72
2021/08/18 07:39:28;;;;;;;9.18;2.90;;;;;;;15.39;91.36;98988.78;5033358;28;20143;-73
2021/08/18 07:41:53;;;;;;;5.30;2.83;;;;;;;15.61;89.90;98989.09;5039570;28;20029;-68
2021/08/18 07:44:19;;;;;;;3.33;2.13;;;;;;;15.86;88.97;98982.72;5031198;28;20025;-73
2021/08/18 07:46:46;;;;;;;5.07;2.15;;;;;;;15.90;89.26;98983.91;5039340;28;20048;-76
2021/08/18 07:49:12;;;;;;;4.95;2.08;;;;;;;15.92;89.86;98960.75;5034306;28;20032;-74
2021/08/18 07:51:37;;;;;;;4.38;2.20;;;;;;;16.19;87.13;98971.25;5032844;28;20033;-74
2021/08/18 07:54:03;;;;;;;3.03;2.00;;;;;;;16.25;86.88;98985.88;5033244;28;20040;-74
2021/08/18 07:56:31;;;;;;;5.82;2.15;;;;;;;16.38;86.28;98983.75;5033591;28;20075;-74
2021/08/18 07:58:57;;;;;;;2.40;1.40;;;;;;;16.59;85.55;98973.31;5034977;28;20025;-73
2021/08/18 08:01:22;;;;;;;4.80;1.95;;;;;;;16.48;84.73;98982.31;5044412;28;20021;-72
2021/08/18 08:03:47;;;;;;;3.40;1.40;;;;;;;16.83;83.31;98976.88;5032157;28;20538;-75
2021/08/18 08:06:12;;;;;;;2.03;1.23;;;;;;;16.99;81.83;98978.03;5031614;28;20025;-74
2021/08/18 08:08:38;;;;;;;4.25;1.38;;;;;;;16.83;82.46;98988.63;5031330;28;20037;-72
2021/08/18 08:11:03;;;;;;;1.75;1.20;;;;;;;16.49;83.46;98984.00;5036432;28;20033;-74
2021/08/18 08:13:28;;;;;;;3.80;1.63;;;;;;;16.36;83.45;98979.59;5046164;28;20033;-75
2021/08/18 08:15:54;;;;;;;3.17;1.13;;;;;;;16.31;84.20;98993.94;5033142;28;20320;-74
2021/08/18 08:18:19;;;;;;;2.25;1.10;;;;;;;16.43;84.12;98994.78;5036560;28;20021;-74
2021/08/18 08:20:45;;;;;;;3.70;1.50;;;;;;;16.18;84.85;98975.06;5043089;28;20104;-73
2021/08/18 08:23:10;;;;;;;1.45;0.90;;;;;;;16.33;83.99;98993.72;5030648;28;20494;-74
2021/08/18 08:25:35;;;;;;;1.83;1.00;;;;;;;16.35;83.73;98991.59;5039409;28;20031;-73
2021/08/18 08:28:00;;;;;;;1.90;1.20;;;;;;;16.26;84.39;98991.09;5034183;28;20024;-73
2021/08/18 08:30:26;;;;;;;2.47;1.13;;;;;;;16.13;84.63;98994.84;5050575;28;20095;-73
2021/08/18 08:32:51;;;;;;;3.17;1.00;;;;;;;16.49;84.66;98989.44;5042853;28;20036;-73
2021/08/18 08:35:17;;;;;;;1.35;0.77;;;;;;;16.62;83.45;99002.88;5036503;28;20506;-74
2021/08/18 08:37:42;;;;;;;2.47;0.82;;;;;;;16.37;82.77;98989.44;5039859;28;20021;-73
2021/08/18 08:40:08;;;;;;;1.60;0.68;;;;;;;16.81;82.23;99001.69;5032746;28;20025;-74
2021/08/18 08:42:37;;;;;;;1.48;0.60;;;;;;;17.24;80.64;98994.97;5032569;28;20514;-74
2021/08/18 08:45:04;;;;;;;2.08;0.63;;;;;;;17.64;79.46;99001.50;5047487;28;20400;-73
2021/08/18 08:47:29;;;;;;;0.73;0.60;;;;;;;17.02;80.23;98989.28;5040480;28;20479;-73
2021/08/18 08:49:56;;;;;;;1.58;0.70;;;;;;;17.33;79.78;98989.94;5044641;28;20047;-74
2021/08/18 08:52:22;;;;;;;0.80;0.55;;;;;;;17.33;79.10;99003.63;5036506;28;20524;-74
2021/08/18 08:54:47;;;;;;;1.63;0.68;;;;;;;17.22;78.56;98988.09;5041649;28;20022;-75
2021/08/18 08:57:13;;;;;;;1.40;0.70;;;;;;;17.35;79.01;99000.66;5032287;28;20025;-72
2021/08/18 08:59:39;;;;;;;1.15;0.70;;;;;;;17.09;79.59;99002.84;5032673;28;20508;-74
2021/08/18 09:02:07;;;;;;;1.85;0.73;;;;;;;16.90;79.55;99002.19;5040344;28;20025;-72
2021/08/18 09:04:38;;;;;;;0.80;0.52;;;;;;;17.42;77.94;98993.09;5034200;28;20030;-75
2021/08/18 09:07:06;;;;;;;1.52;0.75;;;;;;;18.22;74.96;99005.84;5035100;28;20048;-73
2021/08/18 09:09:32;;;;;;;0.75;0.68;;;;;;;18.14;75.53;98998.88;5039363;28;20021;-70
2021/08/18 09:12:03;;;;;;;1.45;0.73;;;;;;;18.22;74.50;98999.53;5032272;28;20022;-70
2021/08/18 09:14:29;;;;;;;1.77;0.60;;;;;;;18.50;72.84;98987.66;5039921;28;20029;-69
2021/08/18 09:19:30;;;;;;;1.05;0.70;;;;;;;18.64;72.61;98993.63;4981570;28;20047;-78
2021/08/18 09:22:06;;;;;;;0.68;0.50;;;;;;;18.29;72.47;98983.78;4990649;28;20101;-78
2021/08/18 09:24:33;;;;;;;1.25;0.70;;;;;;;17.99;73.71;98995.03;4990463;28;20036;-78
2021/08/18 09:27:08;;;;;;;2.15;0.68;;;;;;;17.30;76.80;98980.31;4992046;28;20495;-78
2021/08/18 09:29:43;;;;;;;0.90;0.70;;;;;;;17.51;76.73;98989.75;4985690;28;20023;-78
2021/08/18 09:32:25;;;;;;;2.25;0.82;;;;;;;17.27;78.74;98979.97;4973093;28;20101;-79
2021/08/18 09:34:52;;;;;;;1.80;0.95;;;;;;;17.36;76.75;98983.16;4973884;28;20074;-78
2021/08/18 09:37:17;;;;;;;1.20;0.73;;;;;;;17.55;76.59;98984.63;4977402;28;20031;-78
2021/08/18 09:39:43;;;;;;;2.33;0.70;;;;;;;17.30;78.29;98988.53;4986361;28;20041;-79
2021/08/18 09:42:25;;;;;;;1.33;0.90;;;;;;;17.58;77.39;98996.97;4991563;28;20416;-79
2021/08/18 09:44:51;;;;;;;1.83;0.90;;;;;;;17.52;76.65;98960.50;4993127;28;20067;-79
2021/08/18 09:47:17;;;;;;;0.95;0.70;;;;;;;17.44;76.63;98993.72;4983878;28;20028;-78
2021/08/18 09:49:43;;;;;;;1.45;1.00;;;;;;;17.41;77.60;98975.88;4994523;28;20113;-80
2021/08/18 09:52:08;;;;;;;1.17;0.77;;;;;;;17.32;77.71;98985.56;4996163;28;20035;-80
2021/08/18 09:54:37;;;;;;;1.17;0.88;;;;;;;17.65;76.03;98979.34;4994396;28;20026;-79
2021/08/18 09:57:07;;;;;;;3.40;0.80;;;;;;;18.01;76.83;98990.97;4996019;28;20026;-79
2021/08/18 09:59:36;;;;;;;1.10;0.90;;;;;;;17.62;76.34;98947.00;5002609;28;20022;-80
2021/08/18 10:02:02;;;;;;;;;;;;;;;17.89;74.87;98995.66;4988197;28;20085;-79
2021/08/18 10:04:27;;;;;;;1.02;0.82;;;;;;;17.63;74.29;98973.31;4982761;28;19914;-79
2021/08/18 10:06:53;;;;;;;1.83;1.00;;;;;;;18.04;74.07;98993.22;4972873;28;20121;-78
2021/08/18 10:09:18;;;;;;;1.40;0.90;;;;;;;17.94;73.85;98963.75;4980505;28;20023;-78
2021/08/18 10:11:45;;;;;;;1.83;0.90;;;;;;;18.05;73.60;98983.94;4987358;28;20030;-79
2021/08/18 10:14:12;;;;;;;1.58;0.93;;;;;;;17.83;74.39;98988.47;4992171;28;20077;-77
2021/08/18 10:16:37;;;;;;;2.15;1.00;;;;;;;17.78;74.19;98936.34;4991470;28;20030;-78
2021/08/18 10:19:05;;;;;;;2.42;0.75;;;;;;;18.23;73.43;98993.78;4990624;28;20121;-78
2021/08/18 10:21:32;;;;;;;1.33;0.70;;;;;;;18.20;73.39;98986.09;4992975;28;20034;-77
2021/08/18 10:23:59;;;;;;;2.10;1.02;;;;;;;17.86;73.37;98998.91;4992810;28;20113;-77
2021/08/18 10:26:36;;;;;;;1.48;0.93;;;;;;;17.83;73.67;99002.97;4978332;28;20041;-78
2021/08/18 10:29:06;;;;;;;2.22;0.90;;;;;;;18.17;73.32;98984.66;4978616;28;20599;-78
2021/08/18 10:31:41;;;;;;;3.63;0.98;;;;;;;18.71;71.12;98991.53;4993108;28;20101;-78
2021/08/18 10:34:07;;;;;;;1.25;0.70;;;;;;;18.86;70.12;99000.00;4992942;28;20412;-78
2021/08/18 10:36:41;;;;;;;1.95;1.00;;;;;;;18.87;69.86;98996.19;4991987;28;20627;-78
2021/08/18 10:39:19;;;;;;;1.90;0.90;;;;;;;19.17;68.78;99001.25;4991340;28;20136;-78
2021/08/18 10:41:59;;;;;;;2.58;0.93;;;;;;;18.78;68.88;98992.19;4988036;28;20043;-78
2021/08/18 10:44:47;;;;;;;0.98;0.80;;;;;;;20.25;66.20;98985.94;4987914;28;20062;-78
2021/08/18 10:47:26;;;;;;;1.48;1.00;;;;;;;19.82;65.79;98977.59;4982881;28;20026;-78
2021/08/18 10:50:16;;;;;;;1.67;0.90;;;;;;;20.22;64.79;98981.78;4990450;28;20177;-78
2021/08/18 10:52:41;;;;;;;1.85;0.80;;;;;;;20.31;64.62;98988.47;4991514;28;20034;-76
2021/08/18 10:55:25;;;;;;;1.73;1.00;;;;;;;19.84;66.54;98983.66;4983681;28;20034;-78
2021/08/18 10:57:53;;;;;;;1.20;0.90;;;;;;;20.23;65.06;98982.63;4999915;28;20320;-78
2021/08/18 11:00:39;;;;;;;1.27;0.90;;;;;;;20.32;64.33;98942.56;4988591;28;20026;-77
2021/08/18 11:03:08;;;;;;;2.85;0.95;;;;;;;20.06;64.95;98977.25;4992114;28;20399;-77
2021/08/18 11:05:36;;;;;;;1.85;1.08;;;;;;;20.24;63.93;98979.63;4992324;28;20026;-78
2021/08/18 11:08:03;;;;;;;2.38;1.23;;;;;;;20.54;63.12;98973.56;4990481;28;20034;-78
2021/08/18 11:10:30;;;;;;;2.08;1.00;;;;;;;20.01;63.83;98955.25;4982956;28;20030;-78
2021/08/18 11:12:56;;;;;;;2.10;1.10;;;;;;;20.46;63.69;98968.53;4971398;28;20554;-78
2021/08/18 11:15:22;;;;;;;1.85;1.08;;;;;;;21.11;61.79;98969.19;4988073;28;20030;-77
2021/08/18 11:17:49;;;;;;;3.07;1.43;;;;;;;20.65;62.33;98966.22;4992082;28;20030;-78
2021/08/18 11:20:20;;;;;;;1.63;0.95;;;;;;;20.90;62.69;98970.19;4989856;28;20340;-77
2021/08/18 11:22:51;;;;;;;1.45;1.13;;;;;;;21.76;58.69;98955.13;4990160;28;20109;-77
2021/08/18 11:25:18;;;;;;;2.17;1.17;;;;;;;22.72;55.20;98942.44;4976192;28;20109;-78
2021/08/18 11:27:48;;;;;;;1.95;1.15;;;;;;;22.38;55.68;98933.97;4977621;28;20369;-78